Time;durP1;ratioP1;P1;durP2;ratioP2;P2;SDS_P1;SDS_P2;PMS_P1;PMS_P2;Temp;Humidity;BMP_temperature;BMP_pressure;BME280_temperature;BME280_humidity;BME280_pressure;Samples;Min_cycle;Max_cycle;Signal;HPM_P1;HPM_P2
2021/04/30 00:02:49;;;;;;;10.07;4.20;;;;;;;;;;5070073;28;20388;-77
2021/04/30 00:05:15;;;;;;;9.93;4.50;;;;;;;;;;5068220;28;20029;-77
2021/04/30 00:08:53;;;;;;;11.38;4.35;;;;;;;;;;5070350;28;20384;-76
2021/04/30 00:11:20;;;;;;;9.48;4.28;;;;;;;;;;5069841;28;20041;-77
2021/04/30 00:13:46;;;;;;;8.35;4.10;;;;;;;;;;5070053;28;20025;-76
2021/04/30 00:16:12;;;;;;;10.75;4.35;;;;;;;;;;5068532;28;20021;-77
2021/04/30 00:18:38;;;;;;;10.60;4.38;;;;;;;;;;5069348;28;20027;-76
2021/04/30 00:21:05;;;;;;;7.70;4.63;;;;;;;;;;5069711;28;20086;-76
2021/04/30 00:23:33;;;;;;;12.23;4.35;;;;;;;;;;5069608;28;20040;-76
2021/04/30 00:26:01;;;;;;;12.10;4.60;;;;;;;;;;5069388;28;20024;-77
2021/04/30 00:28:27;;;;;;;11.13;4.60;;;;;;;;;;5068408;28;20044;-78
2021/04/30 00:32:13;;;;;;;11.48;4.38;;;;;;;;;;5110405;27;20426;-78
2021/04/30 00:34:40;;;;;;;8.63;3.75;;;;;;;;;;5108808;28;20161;-77
2021/04/30 00:38:14;;;;;;;9.85;4.10;;;;;;;;;;5110518;27;20434;-78
2021/04/30 00:40:40;;;;;;;7.50;4.10;;;;;;;;;;5110167;28;20027;-77
2021/04/30 00:43:07;;;;;;;11.88;4.18;;;;;;;;;;5108960;28;20020;-77
2021/04/30 00:45:33;;;;;;;9.85;3.95;;;;;;;;;;5108953;28;20026;-77
2021/04/30 00:47:59;;;;;;;9.82;4.90;;;;;;;;;;5109993;28;20539;-77
2021/04/30 00:52:07;;;;;;;14.57;5.32;;;;;;;;;;5110478;27;20426;-77
2021/04/30 00:54:33;;;;;;;10.25;5.07;;;;;;;;;;5110200;28;20043;-77
2021/04/30 00:59:21;;;;;;;10.95;4.22;;;;;;;;;;5069613;28;20383;-78
2021/04/30 01:01:47;;;;;;;9.00;4.57;;;;;;;;;;5069541;28;20033;-77
2021/04/30 01:04:13;;;;;;;10.55;3.80;;;;;;;;;;5069680;28;20082;-77
2021/04/30 01:06:39;;;;;;;7.78;4.00;;;;;;;;;;5069748;28;20048;-77
2021/04/30 01:09:05;;;;;;;9.98;4.88;;;;;;;;;;5069086;28;20662;-77
2021/04/30 01:11:34;;;;;;;8.82;3.88;;;;;;;;;;5068491;28;20078;-77
2021/04/30 01:15:59;;;;;;;12.20;5.05;;;;;;;;;;5130681;27;20108;-77
2021/04/30 01:18:25;;;;;;;6.95;3.20;;;;;;;;;;5110554;28;20027;-77
2021/04/30 01:20:51;;;;;;;9.88;3.90;;;;;;;;;;5108983;28;20035;-76
2021/04/30 01:23:18;;;;;;;9.45;3.83;;;;;;;;;;5109794;28;20495;-77
2021/04/30 01:25:44;;;;;;;10.65;4.20;;;;;;;;;;5110233;28;20024;-76
2021/04/30 01:28:10;;;;;;;7.28;3.67;;;;;;;;;;5110141;28;20058;-77
2021/04/30 01:30:38;;;;;;;8.60;4.50;;;;;;;;;;5109857;28;20570;-76
2021/04/30 01:33:05;;;;;;;10.35;4.43;;;;;;;;;;5110133;28;20024;-77
2021/04/30 01:35:32;;;;;;;13.38;4.32;;;;;;;;;;5109592;28;20028;-77
2021/04/30 01:38:00;;;;;;;12.25;4.43;;;;;;;;;;5110074;28;20016;-77
2021/04/30 01:40:28;;;;;;;14.25;5.60;;;;;;;;;;5109740;28;20031;-78
2021/04/30 01:43:02;;;;;;;9.77;4.38;;;;;;;;;;5109417;28;20016;-76
2021/04/30 01:45:30;;;;;;;11.88;4.93;;;;;;;;;;5110004;28;20027;-77
2021/04/30 01:47:56;;;;;;;12.02;5.35;;;;;;;;;;5109816;28;20154;-77
2021/04/30 01:53:56;;;;;;;9.10;4.28;;;;;;;;;;5110620;27;20430;-77
2021/04/30 01:58:24;;;;;;;8.13;4.32;;;;;;;;;;5110097;27;20393;-77
2021/04/30 02:00:51;;;;;;;10.43;4.40;;;;;;;;;;5110504;28;20050;-76
2021/04/30 02:08:48;;;;;;;13.05;5.03;;;;;;;;;;5110191;27;20441;-76
2021/04/30 02:11:14;;;;;;;14.45;5.05;;;;;;;;;;5108845;28;20063;-77
2021/04/30 02:15:36;;;;;;;11.48;5.20;;;;;;;;;;5069925;28;20380;-77
2021/04/30 02:18:02;;;;;;;9.27;4.15;;;;;;;;;;5068016;28;20045;-77
2021/04/30 02:20:29;;;;;;;9.52;4.57;;;;;;;;;;5069642;28;20025;-77
2021/04/30 02:22:55;;;;;;;10.65;4.85;;;;;;;;;;5069846;28;20021;-77
2021/04/30 02:25:22;;;;;;;9.10;4.20;;;;;;;;;;5069209;28;20097;-76
2021/04/30 02:28:36;;;;;;;10.55;5.32;;;;;;;;;;5110542;27;20389;-76
2021/04/30 02:31:02;;;;;;;10.52;4.72;;;;;;;;;;5110269;28;20031;-77
2021/04/30 02:33:49;;;;;;;10.30;4.70;;;;;;;;;;5110104;27;20381;-76
2021/04/30 02:37:46;;;;;;;9.55;4.65;;;;;;;;;;5110319;27;20434;-76
2021/04/30 02:40:14;;;;;;;14.18;4.78;;;;;;;;;;5110001;28;20472;-77
2021/04/30 02:42:49;;;;;;;8.02;3.95;;;;;;;;;;5110291;27;20437;-76
2021/04/30 02:45:16;;;;;;;7.75;4.10;;;;;;;;;;5108893;28;20027;-77
2021/04/30 02:47:46;;;;;;;7.00;3.55;;;;;;;;;;5109798;28;20020;-76
2021/04/30 02:50:13;;;;;;;10.25;4.60;;;;;;;;;;5109202;28;20020;-78
2021/04/30 02:52:40;;;;;;;7.30;3.88;;;;;;;;;;5109239;28;20388;-76
2021/04/30 02:55:06;;;;;;;8.85;4.10;;;;;;;;;;5109837;28;20027;-77
2021/04/30 02:59:43;;;;;;;8.27;3.97;;;;;;;;;;5110590;27;20162;-76
2021/04/30 03:04:11;;;;;;;11.15;4.75;;;;;;;;;;5110402;27;20446;-77
2021/04/30 03:06:38;;;;;;;11.75;4.63;;;;;;;;;;5110271;28;20027;-77
2021/04/30 03:09:04;;;;;;;12.82;5.90;;;;;;;;;;5109591;28;20432;-78
2021/04/30 03:11:31;;;;;;;11.93;4.40;;;;;;;;;;5110424;28;20498;-76
2021/04/30 03:14:39;;;;;;;6.47;4.00;;;;;;;;;;5110114;27;20491;-76
2021/04/30 03:18:01;;;;;;;11.80;4.95;;;;;;;;;;5110374;27;20453;-76
2021/04/30 03:22:41;;;;;;;9.30;4.82;;;;;;;;;;5130636;27;20335;-76
2021/04/30 03:29:19;;;;;;;8.68;4.75;;;;;;;;;;5109837;27;20953;-76
2021/04/30 03:31:45;;;;;;;10.77;4.28;;;;;;;;;;5110506;28;20028;-76
2021/04/30 03:36:22;;;;;;;12.18;4.72;;;;;;;;;;5069438;28;20437;-78
2021/04/30 03:38:49;;;;;;;10.07;3.75;;;;;;;;;;5068495;28;20029;-77
2021/04/30 03:41:15;;;;;;;7.72;4.10;;;;;;;;;;5069625;28;20063;-78
2021/04/30 03:43:42;;;;;;;9.07;4.25;;;;;;;;;;5069507;28;20108;-77
2021/04/30 03:46:08;;;;;;;9.88;4.43;;;;;;;;;;5069680;28;20066;-77
2021/04/30 03:48:34;;;;;;;9.88;4.03;;;;;;;;;;5068362;28;20056;-76
2021/04/30 03:51:37;;;;;;;12.05;4.72;;;;;;;;;;5110884;27;20377;-77
2021/04/30 03:54:04;;;;;;;13.55;6.03;;;;;;;;;;5110622;28;20323;-78
2021/04/30 03:57:21;;;;;;;9.57;4.72;;;;;;;;;;5109956;27;20430;-79
2021/04/30 03:59:47;;;;;;;10.38;5.05;;;;;;;;;;5110512;28;20488;-78
2021/04/30 04:03:53;;;;;;;11.27;5.40;;;;;;;;;;5110231;27;20801;-77
2021/04/30 04:06:19;;;;;;;12.75;4.15;;;;;;;;;;5110484;28;20110;-78
2021/04/30 04:08:46;;;;;;;9.45;3.95;;;;;;;;;;5110699;28;20047;-78
2021/04/30 04:11:12;;;;;;;9.27;3.95;;;;;;;;;;5110382;28;20031;-78
2021/04/30 04:13:38;;;;;;;9.57;5.18;;;;;;;;;;5110554;28;20028;-77
2021/04/30 04:17:07;;;;;;;9.15;4.28;;;;;;;;;;5110728;27;20158;-77
2021/04/30 04:19:33;;;;;;;9.10;4.38;;;;;;;;;;5110326;28;20030;-78
2021/04/30 04:22:00;;;;;;;13.55;4.28;;;;;;;;;;5110449;28;20118;-79
2021/04/30 04:24:26;;;;;;;10.25;5.57;;;;;;;;;;5110119;28;20020;-77
2021/04/30 04:26:52;;;;;;;15.57;6.43;;;;;;;;;;5110544;28;20074;-77
2021/04/30 04:29:18;;;;;;;17.73;6.38;;;;;;;;;;5110509;28;20028;-78
2021/04/30 04:31:44;;;;;;;11.82;4.70;;;;;;;;;;5110365;28;20480;-78
2021/04/30 04:36:07;;;;;;;14.90;4.60;;;;;;;;;;5110686;27;20385;-78
2021/04/30 04:38:34;;;;;;;14.88;5.50;;;;;;;;;;5110380;28;20040;-78
2021/04/30 04:43:04;;;;;;;7.45;3.58;;;;;;;;;;5110520;27;20433;-78
2021/04/30 04:45:30;;;;;;;7.40;3.72;;;;;;;;;;5108836;28;20524;-78
2021/04/30 04:50:47;;;;;;;8.48;3.55;;;;;;;;;;5110696;27;20437;-78
2021/04/30 04:53:13;;;;;;;10.07;4.47;;;;;;;;;;5110316;28;20024;-78
2021/04/30 04:55:40;;;;;;;6.93;3.95;;;;;;;;;;5110390;28;20388;-78
2021/04/30 04:59:26;;;;;;;6.32;3.40;;;;;;;;;;5110086;27;20385;-77
2021/04/30 05:01:52;;;;;;;6.85;3.92;;;;;;;;;;5109336;28;20056;-77
2021/04/30 05:04:19;;;;;;;10.75;4.18;;;;;;;;;;5110721;28;20036;-77
2021/04/30 05:12:20;;;;;;;15.60;5.70;;;;;;;;;;5110826;27;20438;-77
2021/04/30 05:14:46;;;;;;;16.48;5.22;;;;;;;;;;5110401;28;20020;-78
2021/04/30 05:17:13;;;;;;;10.10;4.90;;;;;;;;;;5109140;28;20031;-78
2021/04/30 05:20:38;;;;;;;10.15;4.10;;;;;;;;;;5110196;27;20381;-77
2021/04/30 05:25:23;;;;;;;10.32;4.68;;;;;;;;;;5110395;27;20131;-77
2021/04/30 05:27:49;;;;;;;11.52;5.35;;;;;;;;;;5112175;28;20103;-77
2021/04/30 05:30:16;;;;;;;9.57;5.28;;;;;;;;;;5110493;28;20058;-78
2021/04/30 05:32:42;;;;;;;10.52;4.63;;;;;;;;;;5110860;28;20020;-77
2021/04/30 05:35:09;;;;;;;14.35;6.00;;;;;;;;;;5111202;28;20024;-77
2021/04/30 05:37:35;;;;;;;7.72;4.05;;;;;;;;;;5110217;28;20032;-77
2021/04/30 05:40:02;;;;;;;10.82;4.68;;;;;;;;;;5110289;28;20499;-77
2021/04/30 05:42:28;;;;;;;13.55;5.15;;;;;;;;;;5110207;28;20035;-77
2021/04/30 05:48:50;;;;;;;11.38;4.40;;;;;;;;;;5172380;27;20307;-76
2021/04/30 05:51:16;;;;;;;13.30;4.57;;;;;;;;;;5133634;27;20027;-78
2021/04/30 05:53:42;;;;;;;13.25;5.40;;;;;;;;;;5152228;27;20487;-77
2021/04/30 05:56:08;;;;;;;14.55;4.50;;;;;;;;;;5151726;27;20049;-77
2021/04/30 05:58:34;;;;;;;8.85;3.85;;;;;;;;;;5151475;27;20031;-77
2021/04/30 06:01:01;;;;;;;9.35;3.58;;;;;;;;;;5151426;27;20480;-77
2021/04/30 06:03:27;;;;;;;12.98;4.95;;;;;;;;;;5151187;27;20122;-76
2021/04/30 06:05:53;;;;;;;9.68;4.10;;;;;;;;;;5151484;27;20028;-77
2021/04/30 06:10:24;;;;;;;9.05;3.80;;;;;;;;;;5110844;27;20924;-78
2021/04/30 06:12:50;;;;;;;11.27;3.78;;;;;;;;;;5109495;28;20039;-76
2021/04/30 06:15:17;;;;;;;11.98;4.78;;;;;;;;;;5109257;28;20455;-77
2021/04/30 06:17:43;;;;;;;15.20;6.18;;;;;;;;;;5109082;28;20085;-77
2021/04/30 06:20:10;;;;;;;12.75;4.35;;;;;;;;;;5109296;28;20027;-77
2021/04/30 06:22:36;;;;;;;13.15;4.05;;;;;;;;;;5110262;28;20372;-77
2021/04/30 06:25:04;;;;;;;10.50;3.63;;;;;;;;;;5109846;28;20375;-78
2021/04/30 06:27:30;;;;;;;10.40;4.20;;;;;;;;;;5110253;28;20100;-76
2021/04/30 06:29:56;;;;;;;11.57;4.07;;;;;;;;;;5109294;28;20165;-78
2021/04/30 06:32:22;;;;;;;11.15;3.65;;;;;;;;;;5110174;28;20027;-78
2021/04/30 06:34:49;;;;;;;7.55;3.30;;;;;;;;;;5110653;28;20476;-77
2021/04/30 06:37:16;;;;;;;11.57;3.75;;;;;;;;;;5110110;28;20036;-77
2021/04/30 06:39:42;;;;;;;11.82;4.63;;;;;;;;;;5109709;28;20460;-77
2021/04/30 06:42:09;;;;;;;13.52;5.90;;;;;;;;;;5109955;28;20046;-78
2021/04/30 06:44:35;;;;;;;11.57;4.45;;;;;;;;;;5110143;28;20027;-78
2021/04/30 06:47:01;;;;;;;7.10;2.92;;;;;;;;;;5109363;28;20488;-78
2021/04/30 06:49:27;;;;;;;7.57;3.15;;;;;;;;;;5110301;28;20123;-78
2021/04/30 06:51:54;;;;;;;7.55;3.22;;;;;;;;;;5110226;28;20024;-78
2021/04/30 06:54:20;;;;;;;6.95;2.55;;;;;;;;;;5109962;28;20024;-79
2021/04/30 06:57:38;;;;;;;8.30;3.22;;;;;;;;;;5110531;27;20384;-78
2021/04/30 07:04:14;;;;;;;13.85;3.42;;;;;;;;;;5110546;27;20385;-78
2021/04/30 07:06:40;;;;;;;7.35;3.08;;;;;;;;;;5110130;28;20020;-77
2021/04/30 07:09:06;;;;;;;7.28;2.65;;;;;;;;;;5110247;28;20019;-78
2021/04/30 07:11:33;;;;;;;9.15;2.85;;;;;;;;;;5110533;28;20024;-78
2021/04/30 07:13:59;;;;;;;13.93;3.75;;;;;;;;;;5110246;28;20024;-78
2021/04/30 07:16:26;;;;;;;13.65;4.00;;;;;;;;;;5109120;28;20393;-78
2021/04/30 07:18:52;;;;;;;9.30;4.28;;;;;;;;;;5110249;28;20020;-77
2021/04/30 07:21:18;;;;;;;8.20;3.00;;;;;;;;;;5109697;28;20456;-79
2021/04/30 07:23:44;;;;;;;6.85;3.13;;;;;;;;;;5110286;28;20030;-78
2021/04/30 07:28:23;;;;;;;9.68;3.30;;;;;;;;;;5109977;27;20373;-79
2021/04/30 07:30:50;;;;;;;14.30;3.75;;;;;;;;;;5110539;28;20115;-79
2021/04/30 07:33:16;;;;;;;9.75;2.83;;;;;;;;;;5111448;28;20405;-78
2021/04/30 07:35:43;;;;;;;9.32;3.15;;;;;;;;;;5108840;28;20398;-78
2021/04/30 07:38:10;;;;;;;8.68;2.97;;;;;;;;;;5110417;28;20020;-78
2021/04/30 07:40:40;;;;;;;5.57;2.30;;;;;;;;;;5110844;28;20472;-80
2021/04/30 07:43:16;;;;;;;4.75;2.47;;;;;;;;;;5108775;28;20046;-79
2021/04/30 07:45:43;;;;;;;6.28;2.40;;;;;;;;;;5109258;28;20044;-79
2021/04/30 07:48:10;;;;;;;6.80;2.33;;;;;;;;;;5110322;28;20035;-79
2021/04/30 07:50:37;;;;;;;8.02;3.38;;;;;;;;;;5110758;28;20020;-80
2021/04/30 07:53:03;;;;;;;6.40;2.55;;;;;;;;;;5110131;28;20545;-78
2021/04/30 07:55:30;;;;;;;8.15;2.67;;;;;;;;;;5108581;28;20071;-80
2021/04/30 07:58:09;;;;;;;7.13;3.33;;;;;;;;;;5110613;27;20377;-80
2021/04/30 08:00:35;;;;;;;9.73;3.03;;;;;;;;;;5110726;28;20031;-80
2021/04/30 08:04:01;;;;;;;9.02;2.72;;;;;;;;;;5069657;28;20383;-80
2021/04/30 08:07:21;;;;;;;12.38;2.42;;;;;;;;;;5110460;27;20361;-80
2021/04/30 08:09:47;;;;;;;10.45;3.33;;;;;;;;;;5109921;28;20031;-79
2021/04/30 08:12:14;;;;;;;10.50;2.67;;;;;;;;;;5110624;28;20105;-81
2021/04/30 08:14:42;;;;;;;8.13;2.38;;;;;;;;;;5110765;28;20167;-79
2021/04/30 08:17:08;;;;;;;10.45;2.58;;;;;;;;;;5110110;28;20035;-79
2021/04/30 08:21:42;;;;;;;8.50;2.15;;;;;;;;;;5110578;27;20714;-79
2021/04/30 08:24:08;;;;;;;6.63;2.33;;;;;;;;;;5110440;28;20480;-79
2021/04/30 08:26:35;;;;;;;7.10;2.22;;;;;;;;;;5110521;28;20024;-80
2021/04/30 08:29:01;;;;;;;4.30;2.03;;;;;;;;;;5108903;28;20097;-80
2021/04/30 08:31:28;;;;;;;9.07;2.45;;;;;;;;;;5110208;28;20020;-80
2021/04/30 08:34:40;;;;;;;9.20;2.15;;;;;;;;;;5114745;27;1146501;-81
2021/04/30 08:37:06;;;;;;;4.90;1.58;;;;;;;;;;5130990;28;20458;-79
2021/04/30 08:39:32;;;;;;;8.70;2.63;;;;;;;;;;5130818;28;20490;-81
2021/04/30 08:41:58;;;;;;;14.25;3.00;;;;;;;;;;5131548;28;20102;-79
2021/04/30 08:44:25;;;;;;;7.05;2.13;;;;;;;;;;5131157;28;20047;-81
2021/04/30 08:46:51;;;;;;;7.28;2.42;;;;;;;;;;5130326;28;20028;-79
2021/04/30 08:49:17;;;;;;;10.13;2.35;;;;;;;;;;5130751;28;20045;-82
2021/04/30 08:51:44;;;;;;;7.80;2.05;;;;;;;;;;5131116;28;20019;-81
2021/04/30 08:54:10;;;;;;;10.70;2.30;;;;;;;;;;5131478;28;20114;-81
2021/04/30 08:56:44;;;;;;;4.55;1.77;;;;;;;;;;5131010;27;20015;-81
2021/04/30 08:59:11;;;;;;;6.05;2.00;;;;;;;;;;5130514;27;20035;-80
2021/04/30 09:01:37;;;;;;;13.65;2.25;;;;;;;;;;5130632;28;20031;-80
2021/04/30 09:04:07;;;;;;;4.40;1.38;;;;;;;;;;5130836;28;20016;-80
2021/04/30 09:06:40;;;;;;;8.23;1.70;;;;;;;;;;5130197;27;20023;-81
2021/04/30 09:09:10;;;;;;;6.70;1.77;;;;;;;;;;5131889;27;20489;-79
2021/04/30 09:11:38;;;;;;;6.03;1.73;;;;;;;;;;5131373;28;20026;-80
2021/04/30 09:14:20;;;;;;;4.82;1.70;;;;;;;;;;5130843;28;20475;-80
2021/04/30 09:17:05;;;;;;;11.02;2.25;;;;;;;;;;5131017;27;20020;-79
2021/04/30 09:19:48;;;;;;;6.53;1.73;;;;;;;;;;5129501;28;20027;-80
2021/04/30 09:22:15;;;;;;;4.63;1.42;;;;;;;;;;5131210;27;20035;-79
2021/04/30 09:24:42;;;;;;;6.70;1.90;;;;;;;;;;5130975;27;20084;-79
2021/04/30 09:27:09;;;;;;;10.13;2.42;;;;;;;;;;5129070;28;20026;-80
2021/04/30 09:29:37;;;;;;;11.30;2.45;;;;;;;;;;5130072;28;20027;-80
2021/04/30 09:32:04;;;;;;;5.20;1.60;;;;;;;;;;5128557;28;20493;-79
2021/04/30 09:34:35;;;;;;;6.70;2.35;;;;;;;;;;5129072;27;20039;-79
2021/04/30 09:37:02;;;;;;;6.03;1.67;;;;;;;;;;5128039;28;20028;-78
2021/04/30 09:39:29;;;;;;;6.55;2.20;;;;;;;;;;5127770;28;20379;-81
2021/04/30 09:42:05;;;;;;;7.95;2.25;;;;;;;;;;5127537;28;20019;-80
2021/04/30 09:44:36;;;;;;;6.13;2.20;;;;;;;;;;5124240;27;20065;-81
2021/04/30 09:47:14;;;;;;;8.73;2.28;;;;;;;;;;5115479;28;20070;-80
2021/04/30 09:49:40;;;;;;;4.72;1.48;;;;;;;;;;5115469;28;20478;-81
2021/04/30 09:52:09;;;;;;;9.68;1.95;;;;;;;;;;5115557;28;20054;-80
2021/04/30 09:54:38;;;;;;;6.43;1.77;;;;;;;;;;5114419;28;20130;-80
2021/04/30 09:57:08;;;;;;;5.57;1.55;;;;;;;;;;5115130;28;20545;-80
2021/04/30 09:59:36;;;;;;;8.52;2.22;;;;;;;;;;5114204;28;20028;-80
2021/04/30 10:02:09;;;;;;;4.43;1.77;;;;;;;;;;5115112;28;20028;-80
2021/04/30 10:04:36;;;;;;;6.03;2.03;;;;;;;;;;5113746;28;20425;-80
2021/04/30 10:07:06;;;;;;;7.68;1.60;;;;;;;;;;5115339;28;20059;-80
2021/04/30 10:09:33;;;;;;;7.35;1.98;;;;;;;;;;5114915;28;20028;-81
2021/04/30 10:12:00;;;;;;;8.88;2.47;;;;;;;;;;5115278;28;20038;-80
2021/04/30 10:14:27;;;;;;;7.05;1.88;;;;;;;;;;5114852;28;20051;-80
2021/04/30 10:16:53;;;;;;;9.48;1.77;;;;;;;;;;5114523;28;20034;-78
2021/04/30 10:19:21;;;;;;;6.95;2.00;;;;;;;;;;5113315;28;20024;-78
2021/04/30 10:21:50;;;;;;;8.43;2.25;;;;;;;;;;5113542;28;20016;-78
2021/04/30 10:24:17;;;;;;;6.70;1.92;;;;;;;;;;5113291;28;20016;-78
2021/04/30 10:26:43;;;;;;;8.55;1.80;;;;;;;;;;5113591;28;20032;-78
2021/04/30 10:29:12;;;;;;;8.38;2.25;;;;;;;;;;5114521;28;20020;-79
2021/04/30 10:31:43;;;;;;;8.60;2.28;;;;;;;;;;5114079;28;20031;-78
2021/04/30 10:34:12;;;;;;;10.00;2.17;;;;;;;;;;5114620;28;20122;-77
2021/04/30 10:36:41;;;;;;;8.07;2.17;;;;;;;;;;5114287;28;20467;-77
2021/04/30 10:39:08;;;;;;;5.35;1.67;;;;;;;;;;5113745;28;20026;-77
2021/04/30 10:41:34;;;;;;;4.65;1.83;;;;;;;;;;5114493;28;20502;-76
2021/04/30 10:44:14;;;;;;;5.57;1.88;;;;;;;;;;5113045;28;20051;-76
2021/04/30 10:46:41;;;;;;;4.75;1.50;;;;;;;;;;5114132;28;20034;-76
2021/04/30 10:49:15;;;;;;;3.10;1.23;;;;;;;;;;5114283;28;20069;-77
2021/04/30 10:51:41;;;;;;;8.00;2.08;;;;;;;;;;5113653;28;20019;-77
2021/04/30 10:54:34;;;;;;;6.60;1.95;;;;;;;;;;5113861;28;20039;-78
2021/04/30 10:57:02;;;;;;;5.60;1.48;;;;;;;;;;5109873;28;20031;-77
2021/04/30 10:59:30;;;;;;;6.05;1.98;;;;;;;;;;5112057;28;20031;-76
2021/04/30 11:02:02;;;;;;;6.55;2.00;;;;;;;;;;5112349;28;20103;-76
2021/04/30 11:04:29;;;;;;;6.47;1.83;;;;;;;;;;5114166;28;20035;-76
2021/04/30 11:06:55;;;;;;;5.47;1.60;;;;;;;;;;5112178;28;20034;-76
2021/04/30 11:09:21;;;;;;;6.90;1.65;;;;;;;;;;5112157;28;20054;-77
2021/04/30 11:11:48;;;;;;;6.97;2.15;;;;;;;;;;5113979;28;20061;-77
2021/04/30 11:14:25;;;;;;;7.55;2.33;;;;;;;;;;5113561;28;20032;-76
2021/04/30 11:16:55;;;;;;;8.82;2.05;;;;;;;;;;5113888;28;20024;-76
2021/04/30 11:19:22;;;;;;;10.50;1.95;;;;;;;;;;5113914;28;20024;-77
2021/04/30 11:21:52;;;;;;;8.93;1.85;;;;;;;;;;5113489;28;20053;-77
2021/04/30 11:24:27;;;;;;;5.55;1.73;;;;;;;;;;5113712;28;20380;-77
2021/04/30 11:27:12;;;;;;;11.55;1.88;;;;;;;;;;5113271;28;20429;-77
2021/04/30 11:29:41;;;;;;;8.88;1.75;;;;;;;;;;5112799;28;20027;-77
2021/04/30 11:32:25;;;;;;;5.28;1.58;;;;;;;;;;5113741;28;20784;-77
2021/04/30 11:34:53;;;;;;;9.25;2.33;;;;;;;;;;5112985;28;20453;-77
2021/04/30 11:37:20;;;;;;;7.57;2.35;;;;;;;;;;5113429;28;20027;-77
2021/04/30 11:39:47;;;;;;;9.35;2.60;;;;;;;;;;5111860;28;20034;-78
2021/04/30 11:42:14;;;;;;;7.47;2.03;;;;;;;;;;5112759;28;20505;-77
2021/04/30 11:44:41;;;;;;;6.65;1.85;;;;;;;;;;5113212;28;20020;-77
2021/04/30 11:47:09;;;;;;;4.38;1.83;;;;;;;;;;5112932;28;20027;-76
2021/04/30 11:49:36;;;;;;;5.40;2.25;;;;;;;;;;5111602;28;20019;-76
2021/04/30 11:52:03;;;;;;;8.68;1.75;;;;;;;;;;5113459;28;20102;-76
2021/04/30 11:54:34;;;;;;;12.25;2.50;;;;;;;;;;5112883;28;20153;-76
2021/04/30 11:57:06;;;;;;;5.70;1.83;;;;;;;;;;5113103;28;20068;-77
2021/04/30 11:59:33;;;;;;;7.07;1.77;;;;;;;;;;5113265;28;20023;-78
2021/04/30 12:02:00;;;;;;;8.10;2.15;;;;;;;;;;5112709;28;20498;-77
2021/04/30 12:04:42;;;;;;;8.88;2.00;;;;;;;;;;5113064;28;20491;-77
2021/04/30 12:07:08;;;;;;;5.90;2.65;;;;;;;;;;5112752;28;20464;-77
2021/04/30 12:09:34;;;;;;;5.57;2.00;;;;;;;;;;5112674;28;20099;-77
2021/04/30 12:12:17;;;;;;;5.88;1.90;;;;;;;;;;5111738;28;20023;-77
2021/04/30 12:14:44;;;;;;;10.60;2.72;;;;;;;;;;5112685;28;20046;-77
2021/04/30 12:17:30;;;;;;;10.05;2.30;;;;;;;;;;5112466;28;20024;-77
2021/04/30 12:19:58;;;;;;;6.25;1.90;;;;;;;;;;5111530;28;20107;-77
2021/04/30 12:22:24;;;;;;;7.80;2.70;;;;;;;;;;5112798;28;20030;-77
2021/04/30 12:24:50;;;;;;;8.75;2.00;;;;;;;;;;5111016;28;20391;-77
2021/04/30 12:27:30;;;;;;;9.82;2.10;;;;;;;;;;5112704;28;20036;-78
2021/04/30 12:29:57;;;;;;;5.47;1.75;;;;;;;;;;5110708;28;20035;-78
2021/04/30 12:32:27;;;;;;;8.30;2.08;;;;;;;;;;5112433;28;20023;-78
2021/04/30 12:34:56;;;;;;;8.90;2.25;;;;;;;;;;5112272;28;20040;-77
2021/04/30 12:37:23;;;;;;;5.57;1.60;;;;;;;;;;5111939;28;20023;-78
2021/04/30 12:39:50;;;;;;;6.53;1.58;;;;;;;;;;5112755;28;20028;-78
2021/04/30 12:42:16;;;;;;;6.15;1.92;;;;;;;;;;5112603;28;20024;-78
2021/04/30 12:44:50;;;;;;;4.43;1.48;;;;;;;;;;5112379;28;20031;-78
2021/04/30 12:47:17;;;;;;;6.53;1.50;;;;;;;;;;5112403;28;20031;-77
2021/04/30 12:49:43;;;;;;;5.00;1.63;;;;;;;;;;5112744;28;20038;-77
2021/04/30 12:52:09;;;;;;;11.20;1.58;;;;;;;;;;5112231;28;20023;-78
2021/04/30 12:54:36;;;;;;;9.27;1.92;;;;;;;;;;5112342;28;20120;-78
2021/04/30 12:57:09;;;;;;;7.82;1.88;;;;;;;;;;5111121;28;20046;-78
2021/04/30 12:59:35;;;;;;;9.68;1.73;;;;;;;;;;5112154;28;20051;-78
2021/04/30 13:02:08;;;;;;;9.00;2.03;;;;;;;;;;5112413;28;20030;-78
2021/04/30 13:04:41;;;;;;;5.90;1.75;;;;;;;;;;5112501;28;20402;-78
2021/04/30 13:07:07;;;;;;;6.93;2.10;;;;;;;;;;5111922;28;20034;-78
2021/04/30 13:09:34;;;;;;;4.50;2.00;;;;;;;;;;5112148;28;20510;-78
2021/04/30 13:12:00;;;;;;;4.82;1.50;;;;;;;;;;5112087;28;20047;-77
2021/04/30 13:14:26;;;;;;;7.20;1.88;;;;;;;;;;5112255;28;20388;-77
2021/04/30 13:16:52;;;;;;;7.00;1.60;;;;;;;;;;5112414;28;20073;-77
2021/04/30 13:19:23;;;;;;;3.28;1.23;;;;;;;;;;5112732;28;20028;-77
2021/04/30 13:21:51;;;;;;;6.47;1.52;;;;;;;;;;5116448;28;20098;-77
2021/04/30 13:24:18;;;;;;;6.35;1.63;;;;;;;;;;5115960;28;20093;-76
2021/04/30 13:27:07;;;;;;;7.40;2.00;;;;;;;;;;5115644;28;20502;-77
2021/04/30 13:29:34;;;;;;;2.83;1.20;;;;;;;;;;5116163;28;20016;-75
2021/04/30 13:32:01;;;;;;;14.93;2.25;;;;;;;;;;5116310;28;20024;-78
2021/04/30 13:34:34;;;;;;;10.50;4.50;;;;;;;;;;5115716;28;20048;-78
2021/04/30 13:37:03;;;;;;;7.35;2.83;;;;;;;;;;5119537;28;20023;-75
2021/04/30 13:39:31;;;;;;;7.20;3.03;;;;;;;;;;5115678;28;20027;-78
2021/04/30 13:41:58;;;;;;;11.10;2.72;;;;;;;;;;5115538;28;20022;-77
2021/04/30 13:44:25;;;;;;;9.48;3.20;;;;;;;;;;5115657;28;20103;-78
2021/04/30 13:46:55;;;;;;;6.57;2.78;;;;;;;;;;5115678;28;20027;-77
2021/04/30 13:49:22;;;;;;;6.32;2.30;;;;;;;;;;5109683;28;20384;-78
2021/04/30 13:51:51;;;;;;;6.00;1.77;;;;;;;;;;5115855;28;20020;-78
2021/04/30 13:54:17;;;;;;;5.28;1.70;;;;;;;;;;5115323;28;20070;-78
2021/04/30 13:56:43;;;;;;;5.18;1.40;;;;;;;;;;5114142;28;20062;-78
2021/04/30 13:59:09;;;;;;;2.83;1.10;;;;;;;;;;5115488;28;20096;-78
2021/04/30 14:01:36;;;;;;;6.50;1.88;;;;;;;;;;5115148;28;20027;-77
2021/04/30 14:04:02;;;;;;;5.55;1.60;;;;;;;;;;5115497;28;20160;-77
2021/04/30 14:06:28;;;;;;;7.28;1.70;;;;;;;;;;5114067;28;20076;-77
2021/04/30 14:08:55;;;;;;;4.80;1.48;;;;;;;;;;5114912;27;20027;-76
2021/04/30 14:11:21;;;;;;;9.88;2.03;;;;;;;;;;5114139;28;20023;-77
2021/04/30 14:13:47;;;;;;;3.88;1.30;;;;;;;;;;5113928;28;20411;-76
2021/04/30 14:16:13;;;;;;;6.57;1.48;;;;;;;;;;5113370;28;20035;-77
2021/04/30 14:18:39;;;;;;;5.30;1.15;;;;;;;;;;5113646;28;20472;-76
2021/04/30 14:21:06;;;;;;;8.13;2.55;;;;;;;;;;5114977;28;20047;-75
2021/04/30 14:23:32;;;;;;;7.68;1.42;;;;;;;;;;5114346;28;20034;-75
2021/04/30 14:25:58;;;;;;;6.93;1.38;;;;;;;;;;5114720;28;20023;-75
2021/04/30 14:28:24;;;;;;;5.65;1.50;;;;;;;;;;5114625;28;20041;-75
2021/04/30 14:30:50;;;;;;;4.13;1.30;;;;;;;;;;5112933;28;20092;-76
2021/04/30 14:33:17;;;;;;;10.65;2.33;;;;;;;;;;5114433;28;20087;-76
2021/04/30 14:35:43;;;;;;;3.72;1.10;;;;;;;;;;5114504;28;20016;-76
2021/04/30 14:38:09;;;;;;;6.32;1.70;;;;;;;;;;5114213;28;20597;-75
2021/04/30 14:40:35;;;;;;;6.53;2.13;;;;;;;;;;5114530;28;20024;-75
2021/04/30 14:43:02;;;;;;;5.05;1.77;;;;;;;;;;5113750;28;20019;-76
2021/04/30 14:45:28;;;;;;;8.50;1.88;;;;;;;;;;5113900;28;20024;-76
2021/04/30 14:47:54;;;;;;;5.72;1.50;;;;;;;;;;5114022;28;20108;-76
2021/04/30 14:50:20;;;;;;;4.15;1.55;;;;;;;;;;5114470;28;20072;-76
2021/04/30 14:52:46;;;;;;;5.32;1.58;;;;;;;;;;5114874;28;20027;-76
2021/04/30 14:55:12;;;;;;;5.53;2.08;;;;;;;;;;5114309;28;20024;-78
2021/04/30 14:57:39;;;;;;;6.05;2.03;;;;;;;;;;5113783;28;20104;-77
2021/04/30 15:00:05;;;;;;;7.10;1.88;;;;;;;;;;5114216;28;20024;-77
2021/04/30 15:02:31;;;;;;;4.97;1.60;;;;;;;;;;5112771;28;20056;-77
2021/04/30 15:04:58;;;;;;;5.75;1.67;;;;;;;;;;5113583;28;20105;-77
2021/04/30 15:07:24;;;;;;;6.45;2.05;;;;;;;;;;5114049;28;20020;-76
2021/04/30 15:09:55;;;;;;;5.53;1.70;;;;;;;;;;5113743;28;20028;-77
2021/04/30 15:12:21;;;;;;;6.28;1.98;;;;;;;;;;5113830;28;20123;-77
2021/04/30 15:14:47;;;;;;;5.80;2.13;;;;;;;;;;5113797;28;20035;-76
2021/04/30 15:17:13;;;;;;;9.73;2.03;;;;;;;;;;5113678;28;20516;-76
2021/04/30 15:19:40;;;;;;;6.22;1.90;;;;;;;;;;5113239;28;20498;-76
2021/04/30 15:22:06;;;;;;;8.57;1.88;;;;;;;;;;5112457;28;20081;-76
2021/04/30 15:24:32;;;;;;;5.95;2.13;;;;;;;;;;5113662;28;20521;-76
2021/04/30 15:26:59;;;;;;;9.70;2.70;;;;;;;;;;5113182;28;20024;-78
2021/04/30 15:29:25;;;;;;;8.18;2.40;;;;;;;;;;5112511;28;20030;-76
2021/04/30 15:31:51;;;;;;;6.53;2.28;;;;;;;;;;5113556;28;20027;-76
2021/04/30 15:34:17;;;;;;;6.80;2.75;;;;;;;;;;5112839;28;20044;-76
2021/04/30 15:36:43;;;;;;;11.05;2.15;;;;;;;;;;5113365;28;20026;-76
2021/04/30 15:39:10;;;;;;;5.60;1.73;;;;;;;;;;5113307;28;20472;-76
2021/04/30 15:41:36;;;;;;;9.13;2.70;;;;;;;;;;5111219;28;20031;-75
2021/04/30 15:44:02;;;;;;;11.57;3.05;;;;;;;;;;5112787;28;20073;-76
2021/04/30 15:46:29;;;;;;;8.02;2.28;;;;;;;;;;5111941;28;20471;-78
2021/04/30 15:48:55;;;;;;;10.60;3.33;;;;;;;;;;5112812;28;20671;-77
2021/04/30 15:51:21;;;;;;;9.50;3.10;;;;;;;;;;5113431;28;20115;-77
2021/04/30 15:53:47;;;;;;;10.38;2.85;;;;;;;;;;5112650;28;20479;-77
2021/04/30 15:56:14;;;;;;;6.05;2.63;;;;;;;;;;5111397;28;20058;-78
2021/04/30 15:58:40;;;;;;;6.20;2.58;;;;;;;;;;5112643;28;20027;-78
2021/04/30 16:01:06;;;;;;;8.20;2.65;;;;;;;;;;5111380;28;20026;-78